sensor_id;sensor_type;location;lat;lon;timestamp;P1;durP1;ratioP1;P2;durP2;ratioP2
38208;SDS011;24016;52.102;11.584;2023-05-16T00:00:22;16.98;;;7.25;;
38208;SDS011;24016;52.102;11.584;2023-05-16T00:02:49;10.98;;;7.07;;
38208;SDS011;24016;52.102;11.584;2023-05-16T00:05:15;8.40;;;7.50;;
38208;SDS011;24016;52.102;11.584;2023-05-16T00:07:42;8.43;;;7.38;;
38208;SDS011;24016;52.102;11.584;2023-05-16T00:10:09;13.57;;;7.82;;
38208;SDS011;24016;52.102;11.584;2023-05-16T00:12:35;11.63;;;8.60;;
38208;SDS011;24016;52.102;11.584;2023-05-16T00:15:01;10.73;;;8.20;;
38208;SDS011;24016;52.102;11.584;2023-05-16T00:17:29;12.15;;;8.65;;
38208;SDS011;24016;52.102;11.584;2023-05-16T00:19:54;11.32;;;9.48;;
38208;SDS011;24016;52.102;11.584;2023-05-16T00:22:23;12.38;;;9.63;;
38208;SDS011;24016;52.102;11.584;2023-05-16T00:24:49;11.43;;;10.23;;
38208;SDS011;24016;52.102;11.584;2023-05-16T00:27:14;13.88;;;10.48;;
38208;SDS011;24016;52.102;11.584;2023-05-16T00:29:40;15.13;;;12.25;;
38208;SDS011;24016;52.102;11.584;2023-05-16T00:32:06;17.15;;;13.25;;
38208;SDS011;24016;52.102;11.584;2023-05-16T00:34:32;16.63;;;12.75;;
38208;SDS011;24016;52.102;11.584;2023-05-16T00:36:58;14.70;;;13.20;;
38208;SDS011;24016;52.102;11.584;2023-05-16T00:39:24;14.85;;;13.25;;
38208;SDS011;24016;52.102;11.584;2023-05-16T00:41:50;16.23;;;12.95;;
38208;SDS011;24016;52.102;11.584;2023-05-16T00:44:15;16.45;;;13.43;;
38208;SDS011;24016;52.102;11.584;2023-05-16T00:46:41;15.20;;;13.70;;
38208;SDS011;24016;52.102;11.584;2023-05-16T00:49:07;17.20;;;14.07;;
38208;SDS011;24016;52.102;11.584;2023-05-16T00:51:33;17.45;;;14.57;;
38208;SDS011;24016;52.102;11.584;2023-05-16T00:54:00;18.65;;;14.50;;
38208;SDS011;24016;52.102;11.584;2023-05-16T00:56:26;15.65;;;14.15;;
38208;SDS011;24016;52.102;11.584;2023-05-16T00:58:52;17.55;;;15.68;;
38208;SDS011;24016;52.102;11.584;2023-05-16T01:01:18;17.50;;;15.63;;
38208;SDS011;24016;52.102;11.584;2023-05-16T01:03:46;15.90;;;14.23;;
38208;SDS011;24016;52.102;11.584;2023-05-16T01:06:12;17.63;;;15.82;;
38208;SDS011;24016;52.102;11.584;2023-05-16T01:08:38;17.30;;;15.35;;
38208;SDS011;24016;52.102;11.584;2023-05-16T01:25:20;14.77;;;12.27;;
38208;SDS011;24016;52.102;11.584;2023-05-16T01:28:01;14.65;;;12.18;;
38208;SDS011;24016;52.102;11.584;2023-05-16T01:33:14;14.57;;;12.80;;
38208;SDS011;24016;52.102;11.584;2023-05-16T01:38:38;15.13;;;12.63;;
38208;SDS011;24016;52.102;11.584;2023-05-16T01:41:27;15.40;;;11.85;;
38208;SDS011;24016;52.102;11.584;2023-05-16T01:46:36;11.25;;;10.13;;
38208;SDS011;24016;52.102;11.584;2023-05-16T01:51:51;13.88;;;10.48;;
38208;SDS011;24016;52.102;11.584;2023-05-16T01:54:21;11.05;;;9.95;;
38208;SDS011;24016;52.102;11.584;2023-05-16T01:56:50;14.27;;;9.60;;
38208;SDS011;24016;52.102;11.584;2023-05-16T01:59:19;13.45;;;9.90;;
38208;SDS011;24016;52.102;11.584;2023-05-16T02:01:46;10.70;;;9.35;;
38208;SDS011;24016;52.102;11.584;2023-05-16T02:04:12;11.27;;;9.30;;
38208;SDS011;24016;52.102;11.584;2023-05-16T02:06:39;10.82;;;9.50;;
38208;SDS011;24016;52.102;11.584;2023-05-16T02:09:05;11.90;;;8.93;;
38208;SDS011;24016;52.102;11.584;2023-05-16T02:11:31;10.73;;;9.05;;
38208;SDS011;24016;52.102;11.584;2023-05-16T02:13:56;11.20;;;8.55;;
38208;SDS011;24016;52.102;11.584;2023-05-16T02:16:22;15.77;;;8.82;;
38208;SDS011;24016;52.102;11.584;2023-05-16T02:18:47;12.80;;;8.55;;
38208;SDS011;24016;52.102;11.584;2023-05-16T02:21:13;11.20;;;8.48;;
38208;SDS011;24016;52.102;11.584;2023-05-16T02:23:38;11.88;;;8.32;;
38208;SDS011;24016;52.102;11.584;2023-05-16T02:26:04;9.80;;;8.02;;
38208;SDS011;24016;52.102;11.584;2023-05-16T02:28:30;10.10;;;7.40;;
38208;SDS011;24016;52.102;11.584;2023-05-16T02:30:56;8.93;;;7.32;;
38208;SDS011;24016;52.102;11.584;2023-05-16T02:33:23;9.73;;;7.28;;
38208;SDS011;24016;52.102;11.584;2023-05-16T02:35:52;7.50;;;6.70;;
38208;SDS011;24016;52.102;11.584;2023-05-16T02:38:18;8.52;;;6.35;;
38208;SDS011;24016;52.102;11.584;2023-05-16T02:40:48;7.90;;;6.43;;
38208;SDS011;24016;52.102;11.584;2023-05-16T02:43:14;7.75;;;5.70;;
38208;SDS011;24016;52.102;11.584;2023-05-16T02:45:40;8.02;;;5.75;;
38208;SDS011;24016;52.102;11.584;2023-05-16T02:48:06;6.60;;;5.90;;
38208;SDS011;24016;52.102;11.584;2023-05-16T02:50:32;8.10;;;5.68;;
38208;SDS011;24016;52.102;11.584;2023-05-16T02:52:58;7.85;;;5.20;;
38208;SDS011;24016;52.102;11.584;2023-05-16T02:55:26;5.97;;;4.57;;
38208;SDS011;24016;52.102;11.584;2023-05-16T02:57:52;7.72;;;4.88;;
38208;SDS011;24016;52.102;11.584;2023-05-16T03:00:17;6.45;;;4.88;;
38208;SDS011;24016;52.102;11.584;2023-05-16T03:02:44;8.77;;;4.85;;
38208;SDS011;24016;52.102;11.584;2023-05-16T03:05:09;6.15;;;4.30;;
38208;SDS011;24016;52.102;11.584;2023-05-16T03:07:35;5.55;;;3.70;;
38208;SDS011;24016;52.102;11.584;2023-05-16T03:10:01;9.50;;;4.40;;
38208;SDS011;24016;52.102;11.584;2023-05-16T03:12:27;6.82;;;4.10;;
38208;SDS011;24016;52.102;11.584;2023-05-16T03:14:53;5.45;;;4.00;;
38208;SDS011;24016;52.102;11.584;2023-05-16T03:17:18;7.22;;;3.75;;
38208;SDS011;24016;52.102;11.584;2023-05-16T03:19:44;6.43;;;4.30;;
38208;SDS011;24016;52.102;11.584;2023-05-16T03:22:09;5.85;;;3.83;;
38208;SDS011;24016;52.102;11.584;2023-05-16T03:24:35;5.68;;;3.95;;
38208;SDS011;24016;52.102;11.584;2023-05-16T03:27:00;5.55;;;3.92;;
38208;SDS011;24016;52.102;11.584;2023-05-16T03:29:28;5.82;;;3.67;;
38208;SDS011;24016;52.102;11.584;2023-05-16T03:31:55;6.25;;;4.03;;
38208;SDS011;24016;52.102;11.584;2023-05-16T03:34:21;4.30;;;3.28;;
38208;SDS011;24016;52.102;11.584;2023-05-16T03:36:47;4.65;;;3.17;;
38208;SDS011;24016;52.102;11.584;2023-05-16T03:39:13;4.80;;;3.80;;
38208;SDS011;24016;52.102;11.584;2023-05-16T03:41:40;4.57;;;3.15;;
38208;SDS011;24016;52.102;11.584;2023-05-16T03:44:06;6.32;;;3.55;;
38208;SDS011;24016;52.102;11.584;2023-05-16T03:46:32;7.82;;;3.00;;
38208;SDS011;24016;52.102;11.584;2023-05-16T03:48:57;6.20;;;2.92;;
38208;SDS011;24016;52.102;11.584;2023-05-16T03:51:23;4.25;;;2.88;;
38208;SDS011;24016;52.102;11.584;2023-05-16T03:53:48;5.40;;;2.85;;
38208;SDS011;24016;52.102;11.584;2023-05-16T03:56:14;4.30;;;2.88;;
38208;SDS011;24016;52.102;11.584;2023-05-16T03:58:39;4.80;;;2.90;;
38208;SDS011;24016;52.102;11.584;2023-05-16T04:01:05;6.70;;;2.80;;
38208;SDS011;24016;52.102;11.584;2023-05-16T04:03:31;6.10;;;2.72;;
38208;SDS011;24016;52.102;11.584;2023-05-16T04:05:57;5.22;;;2.95;;
38208;SDS011;24016;52.102;11.584;2023-05-16T04:08:24;5.22;;;3.05;;
38208;SDS011;24016;52.102;11.584;2023-05-16T04:10:50;4.57;;;2.97;;
38208;SDS011;24016;52.102;11.584;2023-05-16T04:13:15;6.55;;;3.00;;
38208;SDS011;24016;52.102;11.584;2023-05-16T04:15:41;5.88;;;2.78;;
38208;SDS011;24016;52.102;11.584;2023-05-16T04:18:07;5.15;;;2.55;;
38208;SDS011;24016;52.102;11.584;2023-05-16T04:20:33;4.47;;;3.47;;
38208;SDS011;24016;52.102;11.584;2023-05-16T04:23:00;5.53;;;3.13;;
38208;SDS011;24016;52.102;11.584;2023-05-16T04:25:25;3.80;;;3.33;;
38208;SDS011;24016;52.102;11.584;2023-05-16T04:27:51;5.20;;;2.85;;
38208;SDS011;24016;52.102;11.584;2023-05-16T04:30:17;7.70;;;3.08;;
38208;SDS011;24016;52.102;11.584;2023-05-16T04:32:43;7.13;;;3.28;;
38208;SDS011;24016;52.102;11.584;2023-05-16T04:35:08;7.03;;;3.40;;
38208;SDS011;24016;52.102;11.584;2023-05-16T04:37:34;5.45;;;3.17;;
38208;SDS011;24016;52.102;11.584;2023-05-16T04:40:00;6.70;;;3.35;;
38208;SDS011;24016;52.102;11.584;2023-05-16T04:42:26;7.75;;;3.30;;
38208;SDS011;24016;52.102;11.584;2023-05-16T04:44:51;7.13;;;3.30;;
38208;SDS011;24016;52.102;11.584;2023-05-16T04:47:17;5.70;;;3.40;;
38208;SDS011;24016;52.102;11.584;2023-05-16T04:49:42;5.15;;;3.08;;
38208;SDS011;24016;52.102;11.584;2023-05-16T04:52:08;6.25;;;2.65;;
38208;SDS011;24016;52.102;11.584;2023-05-16T04:54:35;5.40;;;3.05;;
38208;SDS011;24016;52.102;11.584;2023-05-16T04:57:02;5.13;;;2.90;;
38208;SDS011;24016;52.102;11.584;2023-05-16T04:59:27;4.53;;;2.97;;
38208;SDS011;24016;52.102;11.584;2023-05-16T05:01:53;6.50;;;2.75;;
38208;SDS011;24016;52.102;11.584;2023-05-16T05:04:18;6.05;;;3.00;;
38208;SDS011;24016;52.102;11.584;2023-05-16T05:06:44;9.55;;;2.45;;
38208;SDS011;24016;52.102;11.584;2023-05-16T05:09:10;6.00;;;2.90;;
38208;SDS011;24016;52.102;11.584;2023-05-16T05:11:35;6.78;;;2.83;;
38208;SDS011;24016;52.102;11.584;2023-05-16T05:14:01;5.88;;;2.67;;
38208;SDS011;24016;52.102;11.584;2023-05-16T05:16:27;5.53;;;2.40;;
38208;SDS011;24016;52.102;11.584;2023-05-16T05:18:53;5.55;;;2.80;;
38208;SDS011;24016;52.102;11.584;2023-05-16T05:21:18;5.05;;;2.53;;
38208;SDS011;24016;52.102;11.584;2023-05-16T05:23:44;4.22;;;2.30;;
38208;SDS011;24016;52.102;11.584;2023-05-16T05:26:10;4.03;;;2.63;;
38208;SDS011;24016;52.102;11.584;2023-05-16T05:28:36;4.80;;;2.30;;
38208;SDS011;24016;52.102;11.584;2023-05-16T05:31:02;5.57;;;2.50;;
38208;SDS011;24016;52.102;11.584;2023-05-16T05:33:29;7.18;;;2.17;;
38208;SDS011;24016;52.102;11.584;2023-05-16T05:35:54;5.22;;;2.63;;
38208;SDS011;24016;52.102;11.584;2023-05-16T05:38:20;5.95;;;2.38;;
38208;SDS011;24016;52.102;11.584;2023-05-16T05:40:46;4.03;;;2.17;;
38208;SDS011;24016;52.102;11.584;2023-05-16T05:43:13;5.45;;;2.13;;
38208;SDS011;24016;52.102;11.584;2023-05-16T05:45:39;6.90;;;2.22;;
38208;SDS011;24016;52.102;11.584;2023-05-16T05:48:04;7.47;;;2.63;;
38208;SDS011;24016;52.102;11.584;2023-05-16T05:50:30;3.20;;;1.90;;
38208;SDS011;24016;52.102;11.584;2023-05-16T05:52:56;5.40;;;2.33;;
38208;SDS011;24016;52.102;11.584;2023-05-16T05:55:21;6.75;;;2.22;;
38208;SDS011;24016;52.102;11.584;2023-05-16T05:57:47;4.18;;;1.67;;
38208;SDS011;24016;52.102;11.584;2023-05-16T06:00:12;3.83;;;1.80;;
38208;SDS011;24016;52.102;11.584;2023-05-16T06:02:38;4.63;;;1.60;;
38208;SDS011;24016;52.102;11.584;2023-05-16T06:05:04;4.75;;;1.90;;
38208;SDS011;24016;52.102;11.584;2023-05-16T06:07:30;5.60;;;2.10;;
38208;SDS011;24016;52.102;11.584;2023-05-16T06:09:55;4.53;;;1.92;;
38208;SDS011;24016;52.102;11.584;2023-05-16T06:12:21;2.50;;;1.50;;
38208;SDS011;24016;52.102;11.584;2023-05-16T06:14:46;3.13;;;1.58;;
38208;SDS011;24016;52.102;11.584;2023-05-16T06:17:12;4.63;;;2.03;;
38208;SDS011;24016;52.102;11.584;2023-05-16T06:19:37;5.00;;;1.85;;
38208;SDS011;24016;52.102;11.584;2023-05-16T06:22:03;4.65;;;1.67;;
38208;SDS011;24016;52.102;11.584;2023-05-16T06:24:28;4.15;;;2.13;;
38208;SDS011;24016;52.102;11.584;2023-05-16T06:26:54;4.45;;;1.90;;
38208;SDS011;24016;52.102;11.584;2023-05-16T06:29:20;6.15;;;2.38;;
38208;SDS011;24016;52.102;11.584;2023-05-16T06:31:45;5.53;;;2.15;;
38208;SDS011;24016;52.102;11.584;2023-05-16T06:34:11;5.82;;;2.20;;
38208;SDS011;24016;52.102;11.584;2023-05-16T06:36:37;3.88;;;2.10;;
38208;SDS011;24016;52.102;11.584;2023-05-16T06:39:02;5.63;;;2.20;;
38208;SDS011;24016;52.102;11.584;2023-05-16T06:41:28;3.38;;;1.60;;
38208;SDS011;24016;52.102;11.584;2023-05-16T06:43:54;3.50;;;1.77;;
38208;SDS011;24016;52.102;11.584;2023-05-16T06:46:20;4.20;;;1.98;;
38208;SDS011;24016;52.102;11.584;2023-05-16T06:48:46;6.25;;;1.98;;
38208;SDS011;24016;52.102;11.584;2023-05-16T06:51:11;6.60;;;2.25;;
38208;SDS011;24016;52.102;11.584;2023-05-16T06:53:37;3.55;;;1.95;;
38208;SDS011;24016;52.102;11.584;2023-05-16T06:56:02;5.05;;;1.90;;
38208;SDS011;24016;52.102;11.584;2023-05-16T06:58:28;5.03;;;2.15;;
38208;SDS011;24016;52.102;11.584;2023-05-16T07:00:54;4.80;;;1.80;;
38208;SDS011;24016;52.102;11.584;2023-05-16T07:03:19;4.78;;;1.65;;
38208;SDS011;24016;52.102;11.584;2023-05-16T07:05:45;9.57;;;1.92;;
38208;SDS011;24016;52.102;11.584;2023-05-16T07:08:10;8.43;;;2.00;;
38208;SDS011;24016;52.102;11.584;2023-05-16T07:10:36;5.32;;;1.92;;
38208;SDS011;24016;52.102;11.584;2023-05-16T07:13:03;4.93;;;1.80;;
38208;SDS011;24016;52.102;11.584;2023-05-16T07:15:30;4.70;;;1.50;;
38208;SDS011;24016;52.102;11.584;2023-05-16T07:17:55;5.70;;;1.70;;
38208;SDS011;24016;52.102;11.584;2023-05-16T07:20:21;3.83;;;1.75;;
38208;SDS011;24016;52.102;11.584;2023-05-16T07:22:47;7.95;;;1.98;;
38208;SDS011;24016;52.102;11.584;2023-05-16T07:25:12;7.95;;;1.83;;
38208;SDS011;24016;52.102;11.584;2023-05-16T07:27:39;7.03;;;1.73;;
38208;SDS011;24016;52.102;11.584;2023-05-16T07:30:12;4.32;;;1.58;;
38208;SDS011;24016;52.102;11.584;2023-05-16T07:32:38;4.95;;;1.67;;
38208;SDS011;24016;52.102;11.584;2023-05-16T07:35:03;5.57;;;1.58;;
38208;SDS011;24016;52.102;11.584;2023-05-16T07:37:29;6.15;;;1.55;;
38208;SDS011;24016;52.102;11.584;2023-05-16T07:39:55;4.70;;;1.40;;
38208;SDS011;24016;52.102;11.584;2023-05-16T07:42:21;10.77;;;1.90;;
38208;SDS011;24016;52.102;11.584;2023-05-16T07:44:46;7.15;;;1.60;;
38208;SDS011;24016;52.102;11.584;2023-05-16T07:47:12;5.07;;;1.25;;
38208;SDS011;24016;52.102;11.584;2023-05-16T07:49:37;8.20;;;2.22;;
38208;SDS011;24016;52.102;11.584;2023-05-16T07:52:03;4.97;;;1.50;;
38208;SDS011;24016;52.102;11.584;2023-05-16T07:54:29;8.23;;;1.90;;
38208;SDS011;24016;52.102;11.584;2023-05-16T07:56:57;6.82;;;2.22;;
38208;SDS011;24016;52.102;11.584;2023-05-16T07:59:22;7.03;;;2.22;;
38208;SDS011;24016;52.102;11.584;2023-05-16T08:01:48;10.43;;;2.85;;
38208;SDS011;24016;52.102;11.584;2023-05-16T08:04:13;8.57;;;2.50;;
38208;SDS011;24016;52.102;11.584;2023-05-16T08:06:39;8.07;;;1.92;;
38208;SDS011;24016;52.102;11.584;2023-05-16T08:09:04;8.70;;;2.22;;
38208;SDS011;24016;52.102;11.584;2023-05-16T08:11:30;9.45;;;2.47;;
38208;SDS011;24016;52.102;11.584;2023-05-16T08:13:56;8.20;;;1.95;;
38208;SDS011;24016;52.102;11.584;2023-05-16T08:16:21;8.75;;;2.00;;
38208;SDS011;24016;52.102;11.584;2023-05-16T08:18:47;7.55;;;1.67;;
38208;SDS011;24016;52.102;11.584;2023-05-16T08:21:12;10.55;;;2.15;;
38208;SDS011;24016;52.102;11.584;2023-05-16T08:23:38;8.82;;;1.90;;
38208;SDS011;24016;52.102;11.584;2023-05-16T08:26:04;7.95;;;1.80;;
38208;SDS011;24016;52.102;11.584;2023-05-16T08:28:33;5.68;;;1.88;;
38208;SDS011;24016;52.102;11.584;2023-05-16T08:30:59;9.95;;;1.80;;
38208;SDS011;24016;52.102;11.584;2023-05-16T08:33:24;5.93;;;1.60;;
38208;SDS011;24016;52.102;11.584;2023-05-16T08:35:50;9.75;;;2.30;;
38208;SDS011;24016;52.102;11.584;2023-05-16T08:38:17;6.90;;;2.00;;
38208;SDS011;24016;52.102;11.584;2023-05-16T08:40:42;8.93;;;2.53;;
38208;SDS011;24016;52.102;11.584;2023-05-16T08:43:09;10.15;;;1.95;;
38208;SDS011;24016;52.102;11.584;2023-05-16T08:45:35;8.23;;;1.95;;
38208;SDS011;24016;52.102;11.584;2023-05-16T08:48:00;12.00;;;2.42;;
38208;SDS011;24016;52.102;11.584;2023-05-16T08:50:28;10.65;;;1.85;;
38208;SDS011;24016;52.102;11.584;2023-05-16T08:52:56;13.65;;;2.20;;
38208;SDS011;24016;52.102;11.584;2023-05-16T08:55:22;10.30;;;2.42;;
38208;SDS011;24016;52.102;11.584;2023-05-16T08:57:50;9.25;;;2.25;;
38208;SDS011;24016;52.102;11.584;2023-05-16T09:00:18;10.88;;;2.28;;
38208;SDS011;24016;52.102;11.584;2023-05-16T09:02:44;5.85;;;2.13;;
38208;SDS011;24016;52.102;11.584;2023-05-16T09:05:11;11.27;;;2.17;;
38208;SDS011;24016;52.102;11.584;2023-05-16T09:07:38;8.80;;;1.80;;
38208;SDS011;24016;52.102;11.584;2023-05-16T09:10:05;7.28;;;2.28;;
38208;SDS011;24016;52.102;11.584;2023-05-16T09:12:32;9.95;;;2.10;;
38208;SDS011;24016;52.102;11.584;2023-05-16T09:15:02;10.27;;;2.05;;
38208;SDS011;24016;52.102;11.584;2023-05-16T09:17:39;6.30;;;1.83;;
38208;SDS011;24016;52.102;11.584;2023-05-16T09:20:08;8.77;;;2.17;;
38208;SDS011;24016;52.102;11.584;2023-05-16T09:22:38;6.85;;;1.77;;
38208;SDS011;24016;52.102;11.584;2023-05-16T09:25:04;7.65;;;1.88;;
38208;SDS011;24016;52.102;11.584;2023-05-16T09:27:30;6.45;;;1.85;;
38208;SDS011;24016;52.102;11.584;2023-05-16T09:29:57;7.18;;;1.88;;
38208;SDS011;24016;52.102;11.584;2023-05-16T09:32:23;12.35;;;1.95;;
38208;SDS011;24016;52.102;11.584;2023-05-16T09:34:49;7.82;;;2.28;;
38208;SDS011;24016;52.102;11.584;2023-05-16T09:37:16;7.57;;;1.88;;
38208;SDS011;24016;52.102;11.584;2023-05-16T09:39:50;8.00;;;1.92;;
38208;SDS011;24016;52.102;11.584;2023-05-16T09:42:17;7.53;;;2.30;;
38208;SDS011;24016;52.102;11.584;2023-05-16T09:44:45;8.13;;;1.85;;
38208;SDS011;24016;52.102;11.584;2023-05-16T09:47:20;7.70;;;1.90;;
38208;SDS011;24016;52.102;11.584;2023-05-16T09:49:49;6.40;;;1.92;;
38208;SDS011;24016;52.102;11.584;2023-05-16T09:52:17;6.80;;;1.83;;
38208;SDS011;24016;52.102;11.584;2023-05-16T09:54:42;7.38;;;1.88;;
38208;SDS011;24016;52.102;11.584;2023-05-16T09:57:12;8.75;;;1.60;;
38208;SDS011;24016;52.102;11.584;2023-05-16T09:59:45;5.88;;;2.05;;
38208;SDS011;24016;52.102;11.584;2023-05-16T10:02:11;4.97;;;1.60;;
38208;SDS011;24016;52.102;11.584;2023-05-16T10:04:37;7.38;;;2.10;;
38208;SDS011;24016;52.102;11.584;2023-05-16T10:07:03;10.77;;;2.25;;
38208;SDS011;24016;52.102;11.584;2023-05-16T10:09:33;6.88;;;2.00;;
38208;SDS011;24016;52.102;11.584;2023-05-16T10:12:03;6.82;;;2.00;;
38208;SDS011;24016;52.102;11.584;2023-05-16T10:14:33;12.45;;;2.00;;
38208;SDS011;24016;52.102;11.584;2023-05-16T10:17:03;5.10;;;1.70;;
38208;SDS011;24016;52.102;11.584;2023-05-16T10:19:35;5.53;;;1.90;;
38208;SDS011;24016;52.102;11.584;2023-05-16T10:22:04;7.93;;;1.92;;
38208;SDS011;24016;52.102;11.584;2023-05-16T10:24:44;8.07;;;2.22;;
38208;SDS011;24016;52.102;11.584;2023-05-16T10:27:15;4.97;;;1.42;;
38208;SDS011;24016;52.102;11.584;2023-05-16T10:29:42;5.00;;;1.70;;
38208;SDS011;24016;52.102;11.584;2023-05-16T10:32:08;5.22;;;1.60;;
38208;SDS011;24016;52.102;11.584;2023-05-16T10:34:35;11.20;;;2.15;;
38208;SDS011;24016;52.102;11.584;2023-05-16T10:37:01;9.32;;;1.80;;
38208;SDS011;24016;52.102;11.584;2023-05-16T10:39:28;6.05;;;1.77;;
38208;SDS011;24016;52.102;11.584;2023-05-16T10:41:54;9.10;;;2.08;;
38208;SDS011;24016;52.102;11.584;2023-05-16T10:44:20;5.95;;;1.88;;
38208;SDS011;24016;52.102;11.584;2023-05-16T10:46:46;9.45;;;2.28;;
38208;SDS011;24016;52.102;11.584;2023-05-16T10:49:19;5.82;;;1.75;;
38208;SDS011;24016;52.102;11.584;2023-05-16T10:54:34;11.20;;;2.13;;
38208;SDS011;24016;52.102;11.584;2023-05-16T10:57:08;6.97;;;1.83;;
38208;SDS011;24016;52.102;11.584;2023-05-16T10:59:43;7.75;;;2.10;;
38208;SDS011;24016;52.102;11.584;2023-05-16T11:02:29;5.70;;;1.80;;
38208;SDS011;24016;52.102;11.584;2023-05-16T11:04:59;7.10;;;1.90;;
38208;SDS011;24016;52.102;11.584;2023-05-16T11:07:33;7.60;;;2.17;;
38208;SDS011;24016;52.102;11.584;2023-05-16T11:12:49;8.55;;;1.63;;
38208;SDS011;24016;52.102;11.584;2023-05-16T11:15:17;11.43;;;2.22;;
38208;SDS011;24016;52.102;11.584;2023-05-16T11:17:44;10.52;;;1.90;;
38208;SDS011;24016;52.102;11.584;2023-05-16T11:20:23;7.25;;;1.80;;
38208;SDS011;24016;52.102;11.584;2023-05-16T11:25:40;6.68;;;1.75;;
38208;SDS011;24016;52.102;11.584;2023-05-16T11:28:09;7.75;;;2.05;;
38208;SDS011;24016;52.102;11.584;2023-05-16T11:30:41;5.82;;;1.70;;
38208;SDS011;24016;52.102;11.584;2023-05-16T11:33:11;6.22;;;1.85;;
38208;SDS011;24016;52.102;11.584;2023-05-16T11:35:37;5.50;;;1.63;;
38208;SDS011;24016;52.102;11.584;2023-05-16T11:38:02;5.30;;;1.60;;
38208;SDS011;24016;52.102;11.584;2023-05-16T11:40:28;5.82;;;1.77;;
38208;SDS011;24016;52.102;11.584;2023-05-16T11:42:54;7.85;;;1.90;;
38208;SDS011;24016;52.102;11.584;2023-05-16T11:45:23;5.63;;;1.58;;
38208;SDS011;24016;52.102;11.584;2023-05-16T11:47:49;6.43;;;1.73;;
38208;SDS011;24016;52.102;11.584;2023-05-16T11:50:16;7.15;;;1.65;;
38208;SDS011;24016;52.102;11.584;2023-05-16T11:52:43;3.10;;;1.40;;
38208;SDS011;24016;52.102;11.584;2023-05-16T11:55:12;5.70;;;1.60;;
38208;SDS011;24016;52.102;11.584;2023-05-16T11:57:40;4.05;;;1.50;;
38208;SDS011;24016;52.102;11.584;2023-05-16T12:00:15;5.75;;;1.58;;
38208;SDS011;24016;52.102;11.584;2023-05-16T12:02:45;8.07;;;1.40;;
38208;SDS011;24016;52.102;11.584;2023-05-16T12:05:12;7.32;;;1.77;;
38208;SDS011;24016;52.102;11.584;2023-05-16T12:07:39;3.63;;;1.48;;
38208;SDS011;24016;52.102;11.584;2023-05-16T12:10:08;7.25;;;1.90;;
38208;SDS011;24016;52.102;11.584;2023-05-16T12:12:36;6.80;;;1.83;;
38208;SDS011;24016;52.102;11.584;2023-05-16T12:15:04;4.10;;;1.38;;
38208;SDS011;24016;52.102;11.584;2023-05-16T12:17:38;4.35;;;1.50;;
38208;SDS011;24016;52.102;11.584;2023-05-16T12:20:04;4.22;;;1.25;;
38208;SDS011;24016;52.102;11.584;2023-05-16T12:22:31;4.60;;;1.10;;
38208;SDS011;24016;52.102;11.584;2023-05-16T12:27:54;4.93;;;1.40;;
38208;SDS011;24016;52.102;11.584;2023-05-16T12:30:24;2.92;;;0.90;;
38208;SDS011;24016;52.102;11.584;2023-05-16T12:32:51;6.15;;;1.73;;
38208;SDS011;24016;52.102;11.584;2023-05-16T12:35:21;5.07;;;1.23;;
38208;SDS011;24016;52.102;11.584;2023-05-16T12:37:53;3.35;;;1.23;;
38208;SDS011;24016;52.102;11.584;2023-05-16T12:40:20;4.13;;;1.30;;
38208;SDS011;24016;52.102;11.584;2023-05-16T12:42:49;3.72;;;1.33;;
38208;SDS011;24016;52.102;11.584;2023-05-16T12:45:18;4.60;;;1.58;;
38208;SDS011;24016;52.102;11.584;2023-05-16T12:47:44;4.10;;;1.05;;
38208;SDS011;24016;52.102;11.584;2023-05-16T12:50:13;5.00;;;1.10;;
38208;SDS011;24016;52.102;11.584;2023-05-16T12:55:10;3.92;;;1.25;;
38208;SDS011;24016;52.102;11.584;2023-05-16T12:57:36;5.22;;;1.30;;
38208;SDS011;24016;52.102;11.584;2023-05-16T13:00:01;3.35;;;1.23;;
38208;SDS011;24016;52.102;11.584;2023-05-16T13:02:27;5.55;;;1.38;;
38208;SDS011;24016;52.102;11.584;2023-05-16T13:04:53;7.88;;;1.48;;
38208;SDS011;24016;52.102;11.584;2023-05-16T13:07:18;3.92;;;1.35;;
38208;SDS011;24016;52.102;11.584;2023-05-16T13:09:44;4.78;;;1.48;;
38208;SDS011;24016;52.102;11.584;2023-05-16T13:12:10;5.15;;;1.30;;
38208;SDS011;24016;52.102;11.584;2023-05-16T13:14:35;4.13;;;1.20;;
38208;SDS011;24016;52.102;11.584;2023-05-16T13:17:01;3.22;;;1.00;;
38208;SDS011;24016;52.102;11.584;2023-05-16T13:19:28;6.50;;;1.38;;
38208;SDS011;24016;52.102;11.584;2023-05-16T13:21:55;4.88;;;1.30;;
38208;SDS011;24016;52.102;11.584;2023-05-16T13:24:21;7.05;;;1.27;;
38208;SDS011;24016;52.102;11.584;2023-05-16T13:26:46;4.95;;;1.48;;
38208;SDS011;24016;52.102;11.584;2023-05-16T13:29:11;5.13;;;1.77;;
38208;SDS011;24016;52.102;11.584;2023-05-16T13:31:38;4.45;;;1.30;;
38208;SDS011;24016;52.102;11.584;2023-05-16T13:34:04;6.65;;;1.63;;
38208;SDS011;24016;52.102;11.584;2023-05-16T13:36:29;5.78;;;1.40;;
38208;SDS011;24016;52.102;11.584;2023-05-16T13:38:55;5.03;;;1.10;;
38208;SDS011;24016;52.102;11.584;2023-05-16T13:41:20;4.53;;;1.17;;
38208;SDS011;24016;52.102;11.584;2023-05-16T13:43:46;3.00;;;1.20;;
38208;SDS011;24016;52.102;11.584;2023-05-16T13:46:11;5.18;;;1.25;;
38208;SDS011;24016;52.102;11.584;2023-05-16T13:48:39;3.58;;;1.15;;
38208;SDS011;24016;52.102;11.584;2023-05-16T13:51:06;4.05;;;1.30;;
38208;SDS011;24016;52.102;11.584;2023-05-16T13:53:32;6.10;;;1.20;;
38208;SDS011;24016;52.102;11.584;2023-05-16T13:55:57;5.25;;;1.63;;
38208;SDS011;24016;52.102;11.584;2023-05-16T13:58:22;4.90;;;1.10;;
38208;SDS011;24016;52.102;11.584;2023-05-16T14:00:48;3.40;;;1.20;;
38208;SDS011;24016;52.102;11.584;2023-05-16T14:03:14;4.07;;;1.35;;
38208;SDS011;24016;52.102;11.584;2023-05-16T14:05:40;6.43;;;1.50;;
38208;SDS011;24016;52.102;11.584;2023-05-16T14:08:05;4.55;;;1.10;;
38208;SDS011;24016;52.102;11.584;2023-05-16T14:10:31;6.68;;;1.20;;
38208;SDS011;24016;52.102;11.584;2023-05-16T14:12:57;2.60;;;1.02;;
38208;SDS011;24016;52.102;11.584;2023-05-16T14:15:22;4.85;;;1.05;;
38208;SDS011;24016;52.102;11.584;2023-05-16T14:17:48;7.47;;;1.50;;
38208;SDS011;24016;52.102;11.584;2023-05-16T14:20:14;3.30;;;1.20;;
38208;SDS011;24016;52.102;11.584;2023-05-16T14:22:39;4.03;;;0.90;;
38208;SDS011;24016;52.102;11.584;2023-05-16T14:25:05;5.45;;;1.00;;
38208;SDS011;24016;52.102;11.584;2023-05-16T14:27:31;4.15;;;0.90;;
38208;SDS011;24016;52.102;11.584;2023-05-16T14:29:57;3.80;;;1.00;;
38208;SDS011;24016;52.102;11.584;2023-05-16T14:32:22;3.58;;;1.17;;
38208;SDS011;24016;52.102;11.584;2023-05-16T14:34:48;4.57;;;1.33;;
38208;SDS011;24016;52.102;11.584;2023-05-16T14:37:13;6.85;;;1.70;;
38208;SDS011;24016;52.102;11.584;2023-05-16T14:39:40;5.65;;;1.15;;
38208;SDS011;24016;52.102;11.584;2023-05-16T14:42:06;4.28;;;1.10;;
38208;SDS011;24016;52.102;11.584;2023-05-16T14:44:32;4.97;;;1.00;;
38208;SDS011;24016;52.102;11.584;2023-05-16T14:46:57;2.30;;;0.98;;
38208;SDS011;24016;52.102;11.584;2023-05-16T14:49:23;2.40;;;1.00;;
38208;SDS011;24016;52.102;11.584;2023-05-16T14:51:48;2.83;;;1.20;;
38208;SDS011;24016;52.102;11.584;2023-05-16T14:54:15;3.83;;;1.30;;
38208;SDS011;24016;52.102;11.584;2023-05-16T14:56:40;5.53;;;1.25;;
38208;SDS011;24016;52.102;11.584;2023-05-16T14:59:06;4.72;;;1.10;;
38208;SDS011;24016;52.102;11.584;2023-05-16T15:01:31;2.90;;;1.10;;
38208;SDS011;24016;52.102;11.584;2023-05-16T15:03:57;4.38;;;1.00;;
38208;SDS011;24016;52.102;11.584;2023-05-16T15:06:23;2.53;;;0.93;;